Skip Navigation LinksHome page > Weather > Current weather Skip Navigation Links

Current Weather

Heathrow, London

For information only: do not use for flight planning or navigation.
Latest weather
Observation time Friday, October 31, 2014 4:20 PM GMT
Local time Friday, October 31, 2014 4:53 PM GMT
Flight conditions Visual Meteorological Conditions
Winds
Wind direction South (180°)
Winds variable from 60° to 200°
Wind speed 13 mph
Visibility 6.2 mi.
Sky condition
Ceiling unlimited
Sky clear
Temperature 66°F
Dewpoint 54°F
Altimeter 29.97 in.Hg
Derived measurements
Relative humidity 64%
Density altitude 607 ft.
Remarks
Corrected report.
Ceiling and visibility OK.
No significant changes expected in the next two hours.
METAR COR EGLL 311620Z 18011KT 060V200 CAVOK 19/12 Q1015 NOSIG

Settings

Location code

InnerDrive.Weather 4.0.5399.0 Release CLR 4.0.30319.34014
Copyright ©2014 Inner Drive Technology. All rights reserved. Portions Copyright ©1986-2014 David Braverman.

Find weather

Site navigation


Skip Navigation Links

Place info

Page info

PayPal - The safer, easier way to pay online!

Return home.

Copyright ©2014 Inner Drive Technology. Purveyors of fine, hand-crafted computer software. Page printed 2014-10-31T16:53:42 UTC.